sensor_id;sensor_type;location;lat;lon;timestamp;temperature;humidity
8132;DHT22;4107;49.212;9.198;2022-07-06T00:00:38;20.20;72.80
8132;DHT22;4107;49.212;9.198;2022-07-06T00:03:04;20.10;73.20
8132;DHT22;4107;49.212;9.198;2022-07-06T00:05:29;20.10;73.60
8132;DHT22;4107;49.212;9.198;2022-07-06T00:07:55;20.10;72.40
8132;DHT22;4107;49.212;9.198;2022-07-06T00:10:20;20.00;72.40
8132;DHT22;4107;49.212;9.198;2022-07-06T00:12:46;20.00;72.20
8132;DHT22;4107;49.212;9.198;2022-07-06T00:15:11;20.00;71.10
8132;DHT22;4107;49.212;9.198;2022-07-06T00:17:37;19.90;70.50
8132;DHT22;4107;49.212;9.198;2022-07-06T00:20:03;19.90;71.10
8132;DHT22;4107;49.212;9.198;2022-07-06T00:22:29;19.80;71.70
8132;DHT22;4107;49.212;9.198;2022-07-06T00:24:54;19.80;72.00
8132;DHT22;4107;49.212;9.198;2022-07-06T00:27:20;19.90;72.20
8132;DHT22;4107;49.212;9.198;2022-07-06T00:29:45;19.80;71.80
8132;DHT22;4107;49.212;9.198;2022-07-06T00:32:11;19.80;72.50
8132;DHT22;4107;49.212;9.198;2022-07-06T00:34:37;19.80;72.20
8132;DHT22;4107;49.212;9.198;2022-07-06T00:37:05;19.70;72.40
8132;DHT22;4107;49.212;9.198;2022-07-06T00:39:32;19.70;73.90
8132;DHT22;4107;49.212;9.198;2022-07-06T00:41:57;19.70;73.60
8132;DHT22;4107;49.212;9.198;2022-07-06T00:44:23;19.60;72.70
8132;DHT22;4107;49.212;9.198;2022-07-06T00:46:49;19.60;72.60
8132;DHT22;4107;49.212;9.198;2022-07-06T00:49:14;19.60;73.20
8132;DHT22;4107;49.212;9.198;2022-07-06T00:51:59;19.50;73.90
8132;DHT22;4107;49.212;9.198;2022-07-06T00:54:30;19.40;74.60
8132;DHT22;4107;49.212;9.198;2022-07-06T00:56:56;19.40;76.90
8132;DHT22;4107;49.212;9.198;2022-07-06T00:59:23;19.30;77.30
8132;DHT22;4107;49.212;9.198;2022-07-06T01:01:49;19.40;90.20
8132;DHT22;4107;49.212;9.198;2022-07-06T01:04:14;19.30;92.00
8132;DHT22;4107;49.212;9.198;2022-07-06T01:06:40;19.40;95.10
8132;DHT22;4107;49.212;9.198;2022-07-06T01:23:47;19.00;77.90
8132;DHT22;4107;49.212;9.198;2022-07-06T01:26:16;19.00;78.40
8132;DHT22;4107;49.212;9.198;2022-07-06T01:28:43;19.00;78.30
8132;DHT22;4107;49.212;9.198;2022-07-06T01:31:23;18.90;78.40
8132;DHT22;4107;49.212;9.198;2022-07-06T01:33:51;18.90;78.30
8132;DHT22;4107;49.212;9.198;2022-07-06T01:36:17;18.90;79.30
8132;DHT22;4107;49.212;9.198;2022-07-06T01:38:53;18.90;79.50
8132;DHT22;4107;49.212;9.198;2022-07-06T01:41:19;18.80;79.10
8132;DHT22;4107;49.212;9.198;2022-07-06T02:00:50;18.50;79.30
8132;DHT22;4107;49.212;9.198;2022-07-06T02:03:15;18.50;80.00
8132;DHT22;4107;49.212;9.198;2022-07-06T02:05:41;18.40;80.00
8132;DHT22;4107;49.212;9.198;2022-07-06T02:08:07;18.40;79.30
8132;DHT22;4107;49.212;9.198;2022-07-06T02:10:32;18.40;79.10
8132;DHT22;4107;49.212;9.198;2022-07-06T02:12:58;18.40;79.60
8132;DHT22;4107;49.212;9.198;2022-07-06T02:15:23;18.40;80.50
8132;DHT22;4107;49.212;9.198;2022-07-06T02:17:49;18.30;80.50
8132;DHT22;4107;49.212;9.198;2022-07-06T02:20:15;18.30;80.90
8132;DHT22;4107;49.212;9.198;2022-07-06T02:22:40;18.30;81.00
8132;DHT22;4107;49.212;9.198;2022-07-06T02:25:06;18.20;80.90
8132;DHT22;4107;49.212;9.198;2022-07-06T02:27:32;18.20;81.00
8132;DHT22;4107;49.212;9.198;2022-07-06T02:29:57;18.20;82.30
8132;DHT22;4107;49.212;9.198;2022-07-06T02:32:23;18.10;83.80
8132;DHT22;4107;49.212;9.198;2022-07-06T02:34:48;18.20;85.50
8132;DHT22;4107;49.212;9.198;2022-07-06T02:37:14;18.10;84.30
8132;DHT22;4107;49.212;9.198;2022-07-06T02:39:40;18.10;84.70
8132;DHT22;4107;49.212;9.198;2022-07-06T02:42:05;18.10;84.90
8132;DHT22;4107;49.212;9.198;2022-07-06T02:44:31;18.10;84.90
8132;DHT22;4107;49.212;9.198;2022-07-06T02:46:57;18.10;85.00
8132;DHT22;4107;49.212;9.198;2022-07-06T02:49:22;18.10;84.80
8132;DHT22;4107;49.212;9.198;2022-07-06T02:51:48;18.10;85.50
8132;DHT22;4107;49.212;9.198;2022-07-06T02:54:14;18.10;86.30
8132;DHT22;4107;49.212;9.198;2022-07-06T02:56:39;18.10;85.80
8132;DHT22;4107;49.212;9.198;2022-07-06T02:59:05;18.10;85.10
8132;DHT22;4107;49.212;9.198;2022-07-06T03:01:30;18.10;85.10
8132;DHT22;4107;49.212;9.198;2022-07-06T03:03:56;18.00;85.30
8132;DHT22;4107;49.212;9.198;2022-07-06T03:06:22;18.00;87.50
8132;DHT22;4107;49.212;9.198;2022-07-06T03:08:47;18.00;87.60
8132;DHT22;4107;49.212;9.198;2022-07-06T03:11:13;18.00;87.90
8132;DHT22;4107;49.212;9.198;2022-07-06T03:13:38;17.90;86.60
8132;DHT22;4107;49.212;9.198;2022-07-06T03:16:04;17.90;87.20
8132;DHT22;4107;49.212;9.198;2022-07-06T03:18:30;17.90;86.90
8132;DHT22;4107;49.212;9.198;2022-07-06T03:20:55;17.80;87.40
8132;DHT22;4107;49.212;9.198;2022-07-06T03:23:21;17.80;87.80
8132;DHT22;4107;49.212;9.198;2022-07-06T03:25:46;17.80;87.90
8132;DHT22;4107;49.212;9.198;2022-07-06T03:28:12;17.80;88.60
8132;DHT22;4107;49.212;9.198;2022-07-06T03:30:38;17.70;87.30
8132;DHT22;4107;49.212;9.198;2022-07-06T03:33:03;17.70;88.30
8132;DHT22;4107;49.212;9.198;2022-07-06T03:35:29;17.70;88.00
8132;DHT22;4107;49.212;9.198;2022-07-06T03:37:54;17.60;89.20
8132;DHT22;4107;49.212;9.198;2022-07-06T03:40:20;17.60;89.70
8132;DHT22;4107;49.212;9.198;2022-07-06T03:42:46;17.60;90.20
8132;DHT22;4107;49.212;9.198;2022-07-06T03:45:11;17.60;90.30
8132;DHT22;4107;49.212;9.198;2022-07-06T03:47:37;17.60;90.40
8132;DHT22;4107;49.212;9.198;2022-07-06T03:50:03;17.60;90.30
8132;DHT22;4107;49.212;9.198;2022-07-06T03:52:29;17.50;90.40
8132;DHT22;4107;49.212;9.198;2022-07-06T03:54:55;17.50;90.40
8132;DHT22;4107;49.212;9.198;2022-07-06T03:57:21;17.50;90.70
8132;DHT22;4107;49.212;9.198;2022-07-06T03:59:47;17.50;90.90
8132;DHT22;4107;49.212;9.198;2022-07-06T04:02:13;17.50;91.20
8132;DHT22;4107;49.212;9.198;2022-07-06T04:04:38;17.50;91.10
8132;DHT22;4107;49.212;9.198;2022-07-06T04:07:04;17.40;91.40
8132;DHT22;4107;49.212;9.198;2022-07-06T04:09:29;17.50;91.50
8132;DHT22;4107;49.212;9.198;2022-07-06T04:11:55;17.50;91.70
8132;DHT22;4107;49.212;9.198;2022-07-06T04:14:21;17.40;91.90
8132;DHT22;4107;49.212;9.198;2022-07-06T04:16:47;17.40;91.90
8132;DHT22;4107;49.212;9.198;2022-07-06T04:19:12;17.40;92.00
8132;DHT22;4107;49.212;9.198;2022-07-06T04:21:38;17.40;92.10
8132;DHT22;4107;49.212;9.198;2022-07-06T04:24:04;17.40;92.10
8132;DHT22;4107;49.212;9.198;2022-07-06T04:26:30;17.40;92.10
8132;DHT22;4107;49.212;9.198;2022-07-06T04:28:55;17.40;92.10
8132;DHT22;4107;49.212;9.198;2022-07-06T04:31:21;17.50;92.30
8132;DHT22;4107;49.212;9.198;2022-07-06T04:33:47;17.50;92.40
8132;DHT22;4107;49.212;9.198;2022-07-06T04:36:12;17.60;92.60
8132;DHT22;4107;49.212;9.198;2022-07-06T04:38:38;17.70;92.50
8132;DHT22;4107;49.212;9.198;2022-07-06T04:41:04;17.80;92.30
8132;DHT22;4107;49.212;9.198;2022-07-06T04:43:29;17.80;92.30
8132;DHT22;4107;49.212;9.198;2022-07-06T04:45:55;17.90;92.30
8132;DHT22;4107;49.212;9.198;2022-07-06T04:48:20;18.00;92.20
8132;DHT22;4107;49.212;9.198;2022-07-06T04:50:46;18.10;92.30
8132;DHT22;4107;49.212;9.198;2022-07-06T04:53:12;18.10;92.30
8132;DHT22;4107;49.212;9.198;2022-07-06T04:55:37;18.20;92.20
8132;DHT22;4107;49.212;9.198;2022-07-06T04:58:03;18.30;92.40
8132;DHT22;4107;49.212;9.198;2022-07-06T05:00:29;18.40;92.60
8132;DHT22;4107;49.212;9.198;2022-07-06T05:02:54;18.50;92.00
8132;DHT22;4107;49.212;9.198;2022-07-06T05:05:20;18.50;92.30
8132;DHT22;4107;49.212;9.198;2022-07-06T05:07:46;18.60;92.10
8132;DHT22;4107;49.212;9.198;2022-07-06T05:10:13;18.80;91.70
8132;DHT22;4107;49.212;9.198;2022-07-06T05:12:39;18.90;91.50
8132;DHT22;4107;49.212;9.198;2022-07-06T05:15:05;19.00;91.50
8132;DHT22;4107;49.212;9.198;2022-07-06T05:17:31;19.10;91.40
8132;DHT22;4107;49.212;9.198;2022-07-06T05:19:57;19.20;91.00
8132;DHT22;4107;49.212;9.198;2022-07-06T05:22:22;19.30;91.00
8132;DHT22;4107;49.212;9.198;2022-07-06T05:24:48;19.40;90.70
8132;DHT22;4107;49.212;9.198;2022-07-06T05:27:13;19.50;90.30
8132;DHT22;4107;49.212;9.198;2022-07-06T05:29:39;19.60;90.30
8132;DHT22;4107;49.212;9.198;2022-07-06T06:11:22;22.20;83.10
8132;DHT22;4107;49.212;9.198;2022-07-06T06:13:48;22.30;83.40
8132;DHT22;4107;49.212;9.198;2022-07-06T06:16:14;22.50;83.90
8132;DHT22;4107;49.212;9.198;2022-07-06T06:18:41;22.70;84.20
8132;DHT22;4107;49.212;9.198;2022-07-06T06:21:06;22.80;81.40
8132;DHT22;4107;49.212;9.198;2022-07-06T06:23:32;22.70;81.20
8132;DHT22;4107;49.212;9.198;2022-07-06T06:25:57;22.80;81.50
8132;DHT22;4107;49.212;9.198;2022-07-06T06:28:23;22.90;81.70
8132;DHT22;4107;49.212;9.198;2022-07-06T06:30:49;23.00;81.90
8132;DHT22;4107;49.212;9.198;2022-07-06T06:33:19;23.30;80.40
8132;DHT22;4107;49.212;9.198;2022-07-06T06:35:46;23.60;79.50
8132;DHT22;4107;49.212;9.198;2022-07-06T06:38:14;24.00;78.70
8132;DHT22;4107;49.212;9.198;2022-07-06T06:40:40;24.40;77.60
8132;DHT22;4107;49.212;9.198;2022-07-06T06:43:05;24.90;76.60
8132;DHT22;4107;49.212;9.198;2022-07-06T06:45:31;25.10;76.10
8132;DHT22;4107;49.212;9.198;2022-07-06T06:47:57;25.20;75.40
8132;DHT22;4107;49.212;9.198;2022-07-06T06:52:49;26.20;74.30
8132;DHT22;4107;49.212;9.198;2022-07-06T06:55:15;26.00;73.30
8132;DHT22;4107;49.212;9.198;2022-07-06T06:57:41;25.90;74.20
8132;DHT22;4107;49.212;9.198;2022-07-06T07:00:07;26.00;72.80
8132;DHT22;4107;49.212;9.198;2022-07-06T07:02:33;26.20;72.30
8132;DHT22;4107;49.212;9.198;2022-07-06T07:04:59;26.70;73.40
8132;DHT22;4107;49.212;9.198;2022-07-06T07:07:24;27.30;70.70
8132;DHT22;4107;49.212;9.198;2022-07-06T07:09:50;27.90;92.10
8132;DHT22;4107;49.212;9.198;2022-07-06T07:12:16;28.10;67.80
8132;DHT22;4107;49.212;9.198;2022-07-06T07:14:43;28.50;68.30
8132;DHT22;4107;49.212;9.198;2022-07-06T07:19:36;29.20;66.10
8132;DHT22;4107;49.212;9.198;2022-07-06T07:22:02;29.80;65.40
8132;DHT22;4107;49.212;9.198;2022-07-06T07:24:28;30.30;63.00
8132;DHT22;4107;49.212;9.198;2022-07-06T07:26:54;30.50;63.10
8132;DHT22;4107;49.212;9.198;2022-07-06T07:29:19;31.00;62.80
8132;DHT22;4107;49.212;9.198;2022-07-06T07:31:45;31.20;59.90
8132;DHT22;4107;49.212;9.198;2022-07-06T07:34:11;31.50;59.70
8132;DHT22;4107;49.212;9.198;2022-07-06T07:36:36;31.80;60.00
8132;DHT22;4107;49.212;9.198;2022-07-06T07:39:02;32.30;59.50
8132;DHT22;4107;49.212;9.198;2022-07-06T07:41:28;32.20;58.30
8132;DHT22;4107;49.212;9.198;2022-07-06T07:43:54;31.80;58.90
8132;DHT22;4107;49.212;9.198;2022-07-06T07:46:19;32.10;59.40
8132;DHT22;4107;49.212;9.198;2022-07-06T07:48:45;32.70;56.40
8132;DHT22;4107;49.212;9.198;2022-07-06T07:51:11;32.80;57.10
8132;DHT22;4107;49.212;9.198;2022-07-06T07:53:36;33.10;57.30
8132;DHT22;4107;49.212;9.198;2022-07-06T07:56:02;32.90;57.10
8132;DHT22;4107;49.212;9.198;2022-07-06T07:58:28;32.90;56.80
8132;DHT22;4107;49.212;9.198;2022-07-06T08:00:53;33.00;56.60
8132;DHT22;4107;49.212;9.198;2022-07-06T08:03:19;32.90;58.00
8132;DHT22;4107;49.212;9.198;2022-07-06T08:05:45;32.90;57.10
8132;DHT22;4107;49.212;9.198;2022-07-06T08:08:12;33.20;57.60
8132;DHT22;4107;49.212;9.198;2022-07-06T08:10:38;32.90;56.90
8132;DHT22;4107;49.212;9.198;2022-07-06T08:13:03;33.10;57.10
8132;DHT22;4107;49.212;9.198;2022-07-06T08:15:29;33.20;56.50
8132;DHT22;4107;49.212;9.198;2022-07-06T08:17:56;33.50;55.20
8132;DHT22;4107;49.212;9.198;2022-07-06T08:20:22;33.80;54.30
8132;DHT22;4107;49.212;9.198;2022-07-06T08:22:47;33.30;53.30
8132;DHT22;4107;49.212;9.198;2022-07-06T08:25:13;33.10;54.60
8132;DHT22;4107;49.212;9.198;2022-07-06T08:27:38;33.90;56.10
8132;DHT22;4107;49.212;9.198;2022-07-06T08:30:05;34.00;55.00
8132;DHT22;4107;49.212;9.198;2022-07-06T08:32:30;34.50;55.60
8132;DHT22;4107;49.212;9.198;2022-07-06T08:34:56;35.00;55.10
8132;DHT22;4107;49.212;9.198;2022-07-06T08:37:22;35.10;55.70
8132;DHT22;4107;49.212;9.198;2022-07-06T08:39:47;35.10;52.80
8132;DHT22;4107;49.212;9.198;2022-07-06T08:42:15;35.30;52.90
8132;DHT22;4107;49.212;9.198;2022-07-06T08:44:43;35.80;53.10
8132;DHT22;4107;49.212;9.198;2022-07-06T08:47:10;35.90;53.20
8132;DHT22;4107;49.212;9.198;2022-07-06T08:49:36;36.00;52.50
8132;DHT22;4107;49.212;9.198;2022-07-06T08:52:03;36.40;52.60
8132;DHT22;4107;49.212;9.198;2022-07-06T08:54:30;36.60;51.30
8132;DHT22;4107;49.212;9.198;2022-07-06T08:56:55;36.80;52.80
8132;DHT22;4107;49.212;9.198;2022-07-06T08:59:21;36.60;50.50
8132;DHT22;4107;49.212;9.198;2022-07-06T09:01:47;36.50;51.50
8132;DHT22;4107;49.212;9.198;2022-07-06T09:04:16;36.30;52.10
8132;DHT22;4107;49.212;9.198;2022-07-06T09:06:44;36.30;51.40
8132;DHT22;4107;49.212;9.198;2022-07-06T09:09:11;36.40;51.20
8132;DHT22;4107;49.212;9.198;2022-07-06T09:11:41;35.90;50.90
8132;DHT22;4107;49.212;9.198;2022-07-06T09:14:07;35.90;49.90
8132;DHT22;4107;49.212;9.198;2022-07-06T09:16:32;36.60;52.40
8132;DHT22;4107;49.212;9.198;2022-07-06T09:18:58;36.30;50.20
8132;DHT22;4107;49.212;9.198;2022-07-06T09:21:30;36.30;50.20
8132;DHT22;4107;49.212;9.198;2022-07-06T09:23:59;36.20;50.70
8132;DHT22;4107;49.212;9.198;2022-07-06T09:26:26;35.90;51.10
8132;DHT22;4107;49.212;9.198;2022-07-06T09:28:55;35.40;50.60
8132;DHT22;4107;49.212;9.198;2022-07-06T09:31:21;35.50;50.20
8132;DHT22;4107;49.212;9.198;2022-07-06T09:34:00;34.70;49.70
8132;DHT22;4107;49.212;9.198;2022-07-06T09:41:53;32.80;50.20
8132;DHT22;4107;49.212;9.198;2022-07-06T09:44:23;32.30;51.70
8132;DHT22;4107;49.212;9.198;2022-07-06T09:46:50;32.20;53.40
8132;DHT22;4107;49.212;9.198;2022-07-06T09:49:20;32.00;54.30
8132;DHT22;4107;49.212;9.198;2022-07-06T09:51:54;31.70;53.90
8132;DHT22;4107;49.212;9.198;2022-07-06T09:54:20;31.60;54.90
8132;DHT22;4107;49.212;9.198;2022-07-06T09:56:47;31.60;54.80
8132;DHT22;4107;49.212;9.198;2022-07-06T09:59:17;31.40;55.40
8132;DHT22;4107;49.212;9.198;2022-07-06T10:01:44;30.80;55.50
8132;DHT22;4107;49.212;9.198;2022-07-06T10:04:12;30.70;56.70
8132;DHT22;4107;49.212;9.198;2022-07-06T10:06:39;30.80;55.90
8132;DHT22;4107;49.212;9.198;2022-07-06T10:09:09;30.60;56.30
8132;DHT22;4107;49.212;9.198;2022-07-06T10:11:39;30.60;55.70
8132;DHT22;4107;49.212;9.198;2022-07-06T10:14:06;30.40;56.70
8132;DHT22;4107;49.212;9.198;2022-07-06T10:16:35;30.20;56.80
8132;DHT22;4107;49.212;9.198;2022-07-06T10:19:03;30.30;56.00
8132;DHT22;4107;49.212;9.198;2022-07-06T10:21:29;30.60;56.10
8132;DHT22;4107;49.212;9.198;2022-07-06T10:23:56;30.60;55.80
8132;DHT22;4107;49.212;9.198;2022-07-06T10:26:25;30.60;55.80
8132;DHT22;4107;49.212;9.198;2022-07-06T10:28:52;30.40;56.00
8132;DHT22;4107;49.212;9.198;2022-07-06T10:31:19;30.10;55.70
8132;DHT22;4107;49.212;9.198;2022-07-06T10:33:46;30.80;56.30
8132;DHT22;4107;49.212;9.198;2022-07-06T10:36:13;31.30;53.80
8132;DHT22;4107;49.212;9.198;2022-07-06T10:38:40;31.80;55.20
8132;DHT22;4107;49.212;9.198;2022-07-06T10:41:07;32.20;54.70
8132;DHT22;4107;49.212;9.198;2022-07-06T10:43:45;32.10;54.00
8132;DHT22;4107;49.212;9.198;2022-07-06T10:46:13;32.10;53.90
8132;DHT22;4107;49.212;9.198;2022-07-06T10:48:43;33.10;58.00
8132;DHT22;4107;49.212;9.198;2022-07-06T10:51:11;34.20;52.40
8132;DHT22;4107;49.212;9.198;2022-07-06T10:53:38;34.90;54.10
8132;DHT22;4107;49.212;9.198;2022-07-06T10:56:07;34.60;50.70
8132;DHT22;4107;49.212;9.198;2022-07-06T11:01:08;33.00;51.50
8132;DHT22;4107;49.212;9.198;2022-07-06T11:03:47;32.50;53.30
8132;DHT22;4107;49.212;9.198;2022-07-06T11:06:22;31.80;54.20
8132;DHT22;4107;49.212;9.198;2022-07-06T11:08:54;31.50;54.60
8132;DHT22;4107;49.212;9.198;2022-07-06T11:14:06;30.10;56.30
8132;DHT22;4107;49.212;9.198;2022-07-06T11:16:36;30.10;58.00
8132;DHT22;4107;49.212;9.198;2022-07-06T11:19:07;29.50;55.50
8132;DHT22;4107;49.212;9.198;2022-07-06T11:22:04;29.30;57.40
8132;DHT22;4107;49.212;9.198;2022-07-06T11:24:31;29.10;56.90
8132;DHT22;4107;49.212;9.198;2022-07-06T11:26:58;28.80;56.50
8132;DHT22;4107;49.212;9.198;2022-07-06T11:29:25;28.80;58.80
8132;DHT22;4107;49.212;9.198;2022-07-06T11:31:57;28.50;58.10
8132;DHT22;4107;49.212;9.198;2022-07-06T11:34:27;28.20;57.80
8132;DHT22;4107;49.212;9.198;2022-07-06T11:37:09;28.00;58.30
8132;DHT22;4107;49.212;9.198;2022-07-06T11:39:37;28.20;59.70
8132;DHT22;4107;49.212;9.198;2022-07-06T11:42:05;28.30;56.40
8132;DHT22;4107;49.212;9.198;2022-07-06T11:44:32;28.20;56.80
8132;DHT22;4107;49.212;9.198;2022-07-06T11:46:59;28.00;58.70
8132;DHT22;4107;49.212;9.198;2022-07-06T11:49:32;28.10;57.30
8132;DHT22;4107;49.212;9.198;2022-07-06T11:52:00;28.10;57.00
8132;DHT22;4107;49.212;9.198;2022-07-06T11:54:26;28.00;56.80
8132;DHT22;4107;49.212;9.198;2022-07-06T11:56:57;27.70;57.60
8132;DHT22;4107;49.212;9.198;2022-07-06T11:59:31;27.60;57.90
8132;DHT22;4107;49.212;9.198;2022-07-06T12:02:15;27.40;57.90
8132;DHT22;4107;49.212;9.198;2022-07-06T12:04:43;27.30;57.90
8132;DHT22;4107;49.212;9.198;2022-07-06T12:07:11;27.40;57.40
8132;DHT22;4107;49.212;9.198;2022-07-06T12:09:38;27.50;58.10
8132;DHT22;4107;49.212;9.198;2022-07-06T12:12:05;27.10;59.00
8132;DHT22;4107;49.212;9.198;2022-07-06T12:14:33;27.10;57.60
8132;DHT22;4107;49.212;9.198;2022-07-06T12:17:13;27.20;57.10
8132;DHT22;4107;49.212;9.198;2022-07-06T12:19:39;27.10;58.60
8132;DHT22;4107;49.212;9.198;2022-07-06T12:22:06;26.90;58.30
8132;DHT22;4107;49.212;9.198;2022-07-06T12:24:33;26.80;57.10
8132;DHT22;4107;49.212;9.198;2022-07-06T12:29:37;26.70;57.10
8132;DHT22;4107;49.212;9.198;2022-07-06T12:32:03;26.70;58.90
8132;DHT22;4107;49.212;9.198;2022-07-06T12:34:31;26.60;57.30
8132;DHT22;4107;49.212;9.198;2022-07-06T12:36:59;26.50;58.10
8132;DHT22;4107;49.212;9.198;2022-07-06T12:39:26;26.40;57.20
8132;DHT22;4107;49.212;9.198;2022-07-06T12:42:01;26.50;58.70
8132;DHT22;4107;49.212;9.198;2022-07-06T12:44:28;26.70;57.10
8132;DHT22;4107;49.212;9.198;2022-07-06T12:47:07;26.60;55.70
8132;DHT22;4107;49.212;9.198;2022-07-06T12:49:34;26.70;56.30
8132;DHT22;4107;49.212;9.198;2022-07-06T12:54:46;26.40;56.00
8132;DHT22;4107;49.212;9.198;2022-07-06T12:57:22;26.20;55.80
8132;DHT22;4107;49.212;9.198;2022-07-06T13:05:01;26.10;55.20
8132;DHT22;4107;49.212;9.198;2022-07-06T13:07:28;26.00;55.30
8132;DHT22;4107;49.212;9.198;2022-07-06T13:09:54;26.10;56.40
8132;DHT22;4107;49.212;9.198;2022-07-06T13:12:21;26.20;55.90
8132;DHT22;4107;49.212;9.198;2022-07-06T13:14:47;26.10;55.00
8132;DHT22;4107;49.212;9.198;2022-07-06T13:17:13;26.20;55.30
8132;DHT22;4107;49.212;9.198;2022-07-06T13:19:39;26.20;53.80
8132;DHT22;4107;49.212;9.198;2022-07-06T13:22:04;26.20;53.10
8132;DHT22;4107;49.212;9.198;2022-07-06T13:24:30;26.30;54.80
8132;DHT22;4107;49.212;9.198;2022-07-06T13:26:56;26.20;54.60
8132;DHT22;4107;49.212;9.198;2022-07-06T13:29:22;26.00;55.00
8132;DHT22;4107;49.212;9.198;2022-07-06T13:31:48;25.90;56.10
8132;DHT22;4107;49.212;9.198;2022-07-06T13:34:14;26.00;54.80
8132;DHT22;4107;49.212;9.198;2022-07-06T13:36:41;25.90;54.30
8132;DHT22;4107;49.212;9.198;2022-07-06T13:39:07;25.80;54.90
8132;DHT22;4107;49.212;9.198;2022-07-06T13:41:33;25.90;53.80
8132;DHT22;4107;49.212;9.198;2022-07-06T13:43:59;26.00;54.20
8132;DHT22;4107;49.212;9.198;2022-07-06T13:46:27;26.10;52.90
8132;DHT22;4107;49.212;9.198;2022-07-06T13:48:52;26.00;53.60
8132;DHT22;4107;49.212;9.198;2022-07-06T13:51:18;25.90;54.30
8132;DHT22;4107;49.212;9.198;2022-07-06T13:53:44;25.70;53.40
8132;DHT22;4107;49.212;9.198;2022-07-06T13:56:10;25.70;53.40
8132;DHT22;4107;49.212;9.198;2022-07-06T13:58:36;25.80;53.30
8132;DHT22;4107;49.212;9.198;2022-07-06T14:01:03;25.70;54.30
8132;DHT22;4107;49.212;9.198;2022-07-06T14:03:29;25.80;53.50
8132;DHT22;4107;49.212;9.198;2022-07-06T14:05:59;25.90;52.50
8132;DHT22;4107;49.212;9.198;2022-07-06T14:08:25;25.90;52.80
8132;DHT22;4107;49.212;9.198;2022-07-06T14:10:52;26.00;52.30
8132;DHT22;4107;49.212;9.198;2022-07-06T14:13:19;26.10;53.50
8132;DHT22;4107;49.212;9.198;2022-07-06T14:15:45;25.90;52.40
8132;DHT22;4107;49.212;9.198;2022-07-06T14:18:11;26.00;50.70
8132;DHT22;4107;49.212;9.198;2022-07-06T14:21:10;26.00;52.90
8132;DHT22;4107;49.212;9.198;2022-07-06T14:23:29;25.90;51.60
8132;DHT22;4107;49.212;9.198;2022-07-06T14:25:56;25.70;52.60
8132;DHT22;4107;49.212;9.198;2022-07-06T14:28:22;25.80;51.20
8132;DHT22;4107;49.212;9.198;2022-07-06T14:30:54;25.90;53.60
8132;DHT22;4107;49.212;9.198;2022-07-06T14:33:20;25.90;52.40
8132;DHT22;4107;49.212;9.198;2022-07-06T14:35:48;25.80;51.80
8132;DHT22;4107;49.212;9.198;2022-07-06T14:38:15;25.80;50.10
8132;DHT22;4107;49.212;9.198;2022-07-06T14:40:41;25.90;52.80
8132;DHT22;4107;49.212;9.198;2022-07-06T14:43:17;25.90;51.00
8132;DHT22;4107;49.212;9.198;2022-07-06T14:45:44;25.80;52.30
8132;DHT22;4107;49.212;9.198;2022-07-06T14:48:10;25.60;51.80
8132;DHT22;4107;49.212;9.198;2022-07-06T14:50:36;25.50;52.20
8132;DHT22;4107;49.212;9.198;2022-07-06T14:53:01;25.60;51.70
8132;DHT22;4107;49.212;9.198;2022-07-06T14:55:40;25.50;51.90
8132;DHT22;4107;49.212;9.198;2022-07-06T14:58:05;25.60;52.00
8132;DHT22;4107;49.212;9.198;2022-07-06T15:00:31;25.50;51.20
8132;DHT22;4107;49.212;9.198;2022-07-06T15:02:57;25.60;51.20
8132;DHT22;4107;49.212;9.198;2022-07-06T15:05:22;25.70;50.10
8132;DHT22;4107;49.212;9.198;2022-07-06T15:07:48;25.60;51.70
8132;DHT22;4107;49.212;9.198;2022-07-06T15:10:19;25.60;49.40
8132;DHT22;4107;49.212;9.198;2022-07-06T15:12:45;25.60;49.60
8132;DHT22;4107;49.212;9.198;2022-07-06T15:15:10;25.60;49.80
8132;DHT22;4107;49.212;9.198;2022-07-06T15:17:36;25.60;50.30
8132;DHT22;4107;49.212;9.198;2022-07-06T15:20:02;25.70;50.40
8132;DHT22;4107;49.212;9.198;2022-07-06T15:22:31;25.60;50.90
8132;DHT22;4107;49.212;9.198;2022-07-06T15:25:01;25.60;48.90
8132;DHT22;4107;49.212;9.198;2022-07-06T15:27:26;25.50;50.90
8132;DHT22;4107;49.212;9.198;2022-07-06T15:29:52;25.40;50.70
8132;DHT22;4107;49.212;9.198;2022-07-06T15:32:18;25.40;50.10
8132;DHT22;4107;49.212;9.198;2022-07-06T15:34:43;25.40;49.30
8132;DHT22;4107;49.212;9.198;2022-07-06T15:37:09;25.50;49.90
8132;DHT22;4107;49.212;9.198;2022-07-06T15:39:35;25.40;49.50
8132;DHT22;4107;49.212;9.198;2022-07-06T15:42:00;25.50;49.20
8132;DHT22;4107;49.212;9.198;2022-07-06T15:44:26;25.50;50.60
8132;DHT22;4107;49.212;9.198;2022-07-06T15:46:52;25.40;50.40
8132;DHT22;4107;49.212;9.198;2022-07-06T15:49:17;25.50;50.80
8132;DHT22;4107;49.212;9.198;2022-07-06T15:51:43;25.30;50.40
8132;DHT22;4107;49.212;9.198;2022-07-06T15:54:18;25.10;49.50
8132;DHT22;4107;49.212;9.198;2022-07-06T15:56:44;25.10;49.50
8132;DHT22;4107;49.212;9.198;2022-07-06T15:59:09;25.10;50.20
8132;DHT22;4107;49.212;9.198;2022-07-06T16:01:35;25.00;50.20
8132;DHT22;4107;49.212;9.198;2022-07-06T16:04:01;25.00;51.10
8132;DHT22;4107;49.212;9.198;2022-07-06T16:06:27;25.00;51.40
8132;DHT22;4107;49.212;9.198;2022-07-06T16:08:52;25.00;51.40
8132;DHT22;4107;49.212;9.198;2022-07-06T16:11:18;25.00;51.70
8132;DHT22;4107;49.212;9.198;2022-07-06T16:13:45;25.00;51.00
8132;DHT22;4107;49.212;9.198;2022-07-06T16:16:11;24.70;51.20
8132;DHT22;4107;49.212;9.198;2022-07-06T16:18:37;24.60;51.70
8132;DHT22;4107;49.212;9.198;2022-07-06T16:21:09;24.60;51.90
8132;DHT22;4107;49.212;9.198;2022-07-06T17:35:00;24.10;87.30
8132;DHT22;4107;49.212;9.198;2022-07-06T17:37:26;24.00;87.60
8132;DHT22;4107;49.212;9.198;2022-07-06T17:39:51;23.90;80.00
8132;DHT22;4107;49.212;9.198;2022-07-06T17:42:24;24.20;80.00
8132;DHT22;4107;49.212;9.198;2022-07-06T17:44:51;23.80;78.50
8132;DHT22;4107;49.212;9.198;2022-07-06T17:47:17;23.80;79.40
8132;DHT22;4107;49.212;9.198;2022-07-06T17:49:43;23.80;76.90
8132;DHT22;4107;49.212;9.198;2022-07-06T17:52:09;23.80;82.00
8132;DHT22;4107;49.212;9.198;2022-07-06T17:54:50;24.00;78.30
8132;DHT22;4107;49.212;9.198;2022-07-06T17:57:17;23.70;77.80
8132;DHT22;4107;49.212;9.198;2022-07-06T17:59:42;23.70;76.50
8132;DHT22;4107;49.212;9.198;2022-07-06T18:02:08;23.60;76.40
8132;DHT22;4107;49.212;9.198;2022-07-06T18:04:34;23.50;66.80
8132;DHT22;4107;49.212;9.198;2022-07-06T18:07:09;23.50;68.20
8132;DHT22;4107;49.212;9.198;2022-07-06T18:09:35;23.40;52.90
8132;DHT22;4107;49.212;9.198;2022-07-06T18:12:00;23.40;52.80
8132;DHT22;4107;49.212;9.198;2022-07-06T18:14:26;23.30;53.00
8132;DHT22;4107;49.212;9.198;2022-07-06T18:16:52;23.30;53.50
8132;DHT22;4107;49.212;9.198;2022-07-06T18:19:18;23.30;53.90
8132;DHT22;4107;49.212;9.198;2022-07-06T18:21:49;23.20;53.20
8132;DHT22;4107;49.212;9.198;2022-07-06T18:24:15;23.20;53.80
8132;DHT22;4107;49.212;9.198;2022-07-06T18:26:42;23.20;54.00
8132;DHT22;4107;49.212;9.198;2022-07-06T18:29:08;23.20;54.50
8132;DHT22;4107;49.212;9.198;2022-07-06T18:31:35;23.10;54.70
8132;DHT22;4107;49.212;9.198;2022-07-06T18:34:10;23.10;54.70
8132;DHT22;4107;49.212;9.198;2022-07-06T18:36:36;23.00;54.50
8132;DHT22;4107;49.212;9.198;2022-07-06T18:39:03;23.00;54.50
8132;DHT22;4107;49.212;9.198;2022-07-06T18:41:29;22.90;54.40
8132;DHT22;4107;49.212;9.198;2022-07-06T18:43:54;22.70;54.90
8132;DHT22;4107;49.212;9.198;2022-07-06T18:46:20;22.50;55.30
8132;DHT22;4107;49.212;9.198;2022-07-06T18:48:52;22.40;56.40